Time;durP1;ratioP1;P1;durP2;ratioP2;P2;SDS_P1;SDS_P2;PMS_P1;PMS_P2;Temp;Humidity;BMP_temperature;BMP_pressure;BME280_temperature;BME280_humidity;BME280_pressure;Samples;Min_cycle;Max_cycle;Signal;HPM_P1;HPM_P2
2022/08/01 00:02:07;;;;;;;11.82;4.18;;;18.30;99.90;;;;;;4823944;29;20398;-51
2022/08/01 00:04:33;;;;;;;8.95;5.25;;;18.30;99.90;;;;;;4825284;29;20042;-53
2022/08/01 00:06:59;;;;;;;7.10;4.97;;;18.20;99.90;;;;;;4824643;29;20099;-52
2022/08/01 00:09:24;;;;;;;8.13;5.18;;;18.20;99.90;;;;;;4825484;29;20049;-51
2022/08/01 00:11:50;;;;;;;12.05;5.22;;;18.10;99.90;;;;;;4824826;29;20050;-54
2022/08/01 00:14:16;;;;;;;6.75;5.00;;;18.20;99.90;;;;;;4824900;29;20133;-52
2022/08/01 00:16:41;;;;;;;10.05;5.10;;;18.20;99.90;;;;;;4825291;29;20030;-53
2022/08/01 00:19:07;;;;;;;14.98;5.25;;;18.20;99.90;;;;;;4825141;29;20026;-50
2022/08/01 00:21:33;;;;;;;7.65;4.35;;;18.20;99.90;;;;;;4825295;29;20037;-54
2022/08/01 00:23:59;;;;;;;8.43;4.50;;;18.20;99.90;;;;;;4824954;29;20018;-51
2022/08/01 00:26:24;;;;;;;8.18;4.25;;;18.20;99.90;;;;;;4825191;29;20034;-51
2022/08/01 00:28:50;;;;;;;9.70;5.18;;;18.20;99.90;;;;;;4824755;29;20030;-50
2022/08/01 00:31:16;;;;;;;5.47;4.20;;;18.20;99.90;;;;;;4825288;29;20440;-54
2022/08/01 00:33:41;;;;;;;9.38;4.53;;;18.20;99.90;;;;;;4824797;29;20118;-51
2022/08/01 00:36:07;;;;;;;6.88;5.15;;;18.20;99.90;;;;;;4824901;29;20034;-51
2022/08/01 00:38:33;;;;;;;9.43;5.95;;;18.20;99.90;;;;;;4823660;29;20103;-50
2022/08/01 00:40:58;;;;;;;8.50;4.75;;;18.30;99.90;;;;;;4824705;29;20058;-52
2022/08/01 00:43:24;;;;;;;7.45;4.55;;;18.30;99.90;;;;;;4825064;29;20633;-52
2022/08/01 00:45:50;;;;;;;8.40;5.03;;;18.30;99.90;;;;;;4824684;29;20038;-51
2022/08/01 00:48:15;;;;;;;10.13;5.50;;;18.20;99.90;;;;;;4824751;29;20027;-53
2022/08/01 00:50:41;;;;;;;10.15;5.15;;;18.10;99.90;;;;;;4824941;29;20026;-51
2022/08/01 00:53:07;;;;;;;8.07;5.22;;;18.10;99.90;;;;;;4823247;29;20134;-52
2022/08/01 00:55:33;;;;;;;8.27;4.95;;;18.10;99.90;;;;;;4824701;29;20035;-54
2022/08/01 00:58:00;;;;;;;6.22;5.05;;;18.10;99.90;;;;;;4823215;29;20536;-53
2022/08/01 01:00:26;;;;;;;5.97;5.38;;;18.20;99.90;;;;;;4824474;29;20054;-53
2022/08/01 01:02:52;;;;;;;8.70;5.40;;;18.20;99.90;;;;;;4824441;29;20109;-53
2022/08/01 01:05:18;;;;;;;7.43;5.68;;;18.10;99.90;;;;;;4824598;29;20133;-54
2022/08/01 01:08:15;;;;;;;12.02;5.63;;;18.10;99.90;;;;;;4824583;29;20038;-53
2022/08/01 01:11:03;;;;;;;8.32;5.43;;;18.10;99.90;;;;;;4824697;29;20030;-52
2022/08/01 01:13:43;;;;;;;13.02;5.53;;;18.10;99.90;;;;;;4823109;29;20141;-49
2022/08/01 01:16:14;;;;;;;8.00;4.53;;;18.10;99.90;;;;;;4824265;29;20039;-53
2022/08/01 01:18:46;;;;;;;10.70;5.13;;;18.10;99.90;;;;;;4824418;29;20083;-52
2022/08/01 01:21:45;;;;;;;8.23;5.00;;;18.20;99.90;;;;;;4824318;29;20114;-53
2022/08/01 01:24:35;;;;;;;9.07;5.10;;;18.10;99.90;;;;;;4823295;29;20076;-52
2022/08/01 01:27:18;;;;;;;7.65;5.60;;;18.20;99.90;;;;;;4824069;29;21049;-52
2022/08/01 01:29:49;;;;;;;10.40;4.53;;;18.20;99.90;;;;;;4824281;29;20058;-53
2022/08/01 01:32:35;;;;;;;9.45;5.28;;;18.20;99.90;;;;;;4823962;29;20669;-49
2022/08/01 01:35:08;;;;;;;9.68;4.72;;;18.20;99.90;;;;;;4824027;29;20106;-51
2022/08/01 01:37:35;;;;;;;;;;;18.10;99.90;;;;;;4822999;29;20073;-52
2022/08/01 01:40:03;;;;;;;10.10;5.13;;;18.10;99.90;;;;;;4823914;29;20332;-50
2022/08/01 01:42:31;;;;;;;8.48;5.10;;;18.10;99.90;;;;;;4822814;29;20079;-54
2022/08/01 01:45:14;;;;;;;8.57;5.07;;;18.10;99.90;;;;;;4823495;29;20034;-54
2022/08/01 01:47:41;;;;;;;9.57;5.28;;;18.20;99.90;;;;;;4823793;29;20042;-51
2022/08/01 01:50:11;;;;;;;7.57;5.28;;;18.20;99.90;;;;;;4823464;29;20087;-51
2022/08/01 01:52:39;;;;;;;9.85;5.72;;;18.10;99.90;;;;;;4823825;29;20042;-51
2022/08/01 01:55:07;;;;;;;16.52;5.53;;;18.00;99.90;;;;;;4823628;29;20045;-50
2022/08/01 01:57:38;;;;;;;12.07;5.30;;;18.00;99.90;;;;;;4823696;29;20406;-50
2022/08/01 02:00:06;;;;;;;8.57;4.85;;;18.00;99.90;;;;;;4823176;29;20114;-53
2022/08/01 02:02:35;;;;;;;9.25;4.30;;;18.00;99.90;;;;;;4823657;29;20030;-53
2022/08/01 02:05:01;;;;;;;7.75;4.95;;;18.10;99.90;;;;;;4823358;29;20407;-51
2022/08/01 02:07:28;;;;;;;12.07;5.15;;;18.10;99.90;;;;;;4823708;29;20463;-51
2022/08/01 02:09:55;;;;;;;6.68;5.53;;;18.10;99.90;;;;;;4823400;29;20125;-53
2022/08/01 02:12:21;;;;;;;6.28;4.68;;;18.10;99.90;;;;;;4823282;29;20050;-53
2022/08/01 02:14:49;;;;;;;9.20;4.65;;;18.10;99.90;;;;;;4823126;29;20034;-52
2022/08/01 02:17:20;;;;;;;8.13;5.15;;;18.10;99.90;;;;;;4823174;29;20039;-50
2022/08/01 02:19:47;;;;;;;9.32;4.95;;;18.10;99.90;;;;;;4823360;29;20030;-52
2022/08/01 02:22:36;;;;;;;13.45;5.30;;;18.20;99.90;;;;;;4823311;29;20038;-54
2022/08/01 02:25:22;;;;;;;15.98;5.95;;;18.20;99.90;;;;;;4823098;29;20034;-52
2022/08/01 02:27:52;;;;;;;11.65;6.22;;;18.20;99.90;;;;;;4823193;29;20389;-55
2022/08/01 02:30:17;;;;;;;5.80;4.07;;;18.20;99.90;;;;;;4823237;29;20370;-51
2022/08/01 02:32:47;;;;;;;7.82;5.72;;;18.20;99.90;;;;;;4823350;29;20034;-51
2022/08/01 02:35:35;;;;;;;6.45;4.93;;;18.20;99.90;;;;;;4823262;29;20042;-53
2022/08/01 02:38:03;;;;;;;7.03;5.72;;;18.20;99.90;;;;;;4823204;29;20117;-52
2022/08/01 02:40:32;;;;;;;8.48;5.68;;;18.30;99.90;;;;;;4823223;29;20474;-51
2022/08/01 02:43:01;;;;;;;9.32;5.53;;;18.30;99.90;;;;;;4822902;29;20038;-54
2022/08/01 02:45:27;;;;;;;8.18;4.70;;;18.20;99.90;;;;;;4823148;29;20030;-53
2022/08/01 02:47:58;;;;;;;6.30;5.10;;;18.20;99.90;;;;;;4823052;29;20479;-51
2022/08/01 02:50:34;;;;;;;8.32;4.80;;;18.20;99.90;;;;;;4823211;29;20035;-50
2022/08/01 02:53:03;;;;;;;14.13;5.13;;;18.20;99.90;;;;;;4823027;29;20371;-53
2022/08/01 02:55:32;;;;;;;13.98;5.13;;;18.10;99.90;;;;;;4823008;29;20031;-51
2022/08/01 02:57:58;;;;;;;7.15;5.35;;;18.10;99.90;;;;;;4822849;29;20371;-51
2022/08/01 03:00:26;;;;;;;7.65;5.20;;;18.10;99.90;;;;;;4822417;29;20026;-55
2022/08/01 03:02:54;;;;;;;18.67;5.45;;;18.10;99.90;;;;;;4822610;29;20038;-54
2022/08/01 03:05:21;;;;;;;10.77;5.50;;;18.10;99.90;;;;;;4822939;29;20090;-52
2022/08/01 03:07:47;;;;;;;13.20;5.38;;;18.00;99.90;;;;;;4822752;29;20096;-55
2022/08/01 03:10:15;;;;;;;9.45;5.00;;;18.10;99.90;;;;;;4822842;29;20034;-52
2022/08/01 03:12:43;;;;;;;7.47;5.70;;;18.10;99.90;;;;;;4822486;29;20048;-53
2022/08/01 03:15:11;;;;;;;8.48;5.88;;;18.00;99.90;;;;;;4822105;29;20034;-53
2022/08/01 03:17:40;;;;;;;6.53;4.97;;;18.00;99.90;;;;;;4822648;29;20372;-50
2022/08/01 03:20:08;;;;;;;5.70;5.18;;;18.10;99.90;;;;;;4822505;29;20109;-52
2022/08/01 03:22:35;;;;;;;10.00;5.97;;;18.10;99.90;;;;;;4822591;29;20046;-53
2022/08/01 03:25:03;;;;;;;6.70;4.47;;;18.10;99.90;;;;;;4822567;29;20042;-53
2022/08/01 03:27:29;;;;;;;6.57;4.07;;;18.10;99.90;;;;;;4822524;29;20034;-52
2022/08/01 03:29:57;;;;;;;12.02;5.50;;;18.00;99.90;;;;;;4822201;29;20060;-54
2022/08/01 03:32:24;;;;;;;6.88;5.20;;;18.00;99.90;;;;;;4821020;29;20059;-49
2022/08/01 03:34:50;;;;;;;6.53;4.55;;;18.00;99.90;;;;;;4822415;29;20114;-52
2022/08/01 03:37:25;;;;;;;6.68;4.75;;;18.00;99.90;;;;;;4822361;29;20110;-55
2022/08/01 03:40:00;;;;;;;10.43;5.22;;;18.00;99.90;;;;;;4821993;29;20042;-51
2022/08/01 03:42:33;;;;;;;11.50;5.28;;;17.90;99.90;;;;;;4822360;29;20432;-51
2022/08/01 03:45:04;;;;;;;8.55;4.53;;;17.90;99.90;;;;;;4822338;29;20400;-51
2022/08/01 03:47:33;;;;;;;8.95;5.07;;;17.80;99.90;;;;;;4822347;29;20509;-51
2022/08/01 03:50:00;;;;;;;5.88;4.75;;;17.90;99.90;;;;;;4822459;29;20058;-55
2022/08/01 03:52:28;;;;;;;7.00;5.25;;;17.90;99.90;;;;;;4822356;29;20022;-53
2022/08/01 03:54:58;;;;;;;8.30;4.25;;;17.90;99.90;;;;;;4821934;29;20099;-53
2022/08/01 03:57:28;;;;;;;6.70;4.30;;;17.80;99.90;;;;;;4822161;29;20026;-51
2022/08/01 03:59:54;;;;;;;6.05;4.72;;;17.80;99.90;;;;;;4821557;29;20034;-51
2022/08/01 04:02:21;;;;;;;8.90;4.78;;;17.80;99.90;;;;;;4821973;29;20113;-50
2022/08/01 04:04:47;;;;;;;13.00;4.38;;;17.70;99.90;;;;;;4822059;29;20022;-53
2022/08/01 04:07:24;;;;;;;7.88;4.25;;;17.70;99.90;;;;;;4821862;29;20041;-50
2022/08/01 04:09:51;;;;;;;8.35;4.65;;;17.60;99.90;;;;;;4821974;29;20046;-50
2022/08/01 04:12:17;;;;;;;13.55;4.75;;;17.60;99.90;;;;;;4822186;29;20047;-52
2022/08/01 04:14:43;;;;;;;7.78;4.70;;;17.60;99.90;;;;;;4806991;29;20034;-50
2022/08/01 04:17:08;;;;;;;11.45;4.45;;;17.50;99.90;;;;;;4823963;29;20053;-50
2022/08/01 04:19:34;;;;;;;12.75;5.45;;;17.50;99.90;;;;;;4825242;29;20030;-51
2022/08/01 04:22:02;;;;;;;12.65;5.50;;;17.50;99.90;;;;;;4824909;29;20030;-50
2022/08/01 04:24:29;;;;;;;7.72;4.28;;;17.50;99.90;;;;;;4825046;29;20026;-52
2022/08/01 04:26:59;;;;;;;5.78;4.10;;;17.40;99.90;;;;;;4825051;29;20106;-51
2022/08/01 04:29:27;;;;;;;7.57;4.45;;;17.40;99.90;;;;;;4824827;29;20045;-51
2022/08/01 04:31:55;;;;;;;10.25;4.53;;;17.40;99.90;;;;;;4824588;29;20035;-52
2022/08/01 04:34:24;;;;;;;15.07;4.63;;;17.40;99.90;;;;;;4824591;29;20398;-51
2022/08/01 04:36:52;;;;;;;8.55;4.45;;;17.40;99.90;;;;;;4824371;29;20038;-51
2022/08/01 04:39:20;;;;;;;13.23;4.28;;;17.40;99.90;;;;;;4824180;29;20030;-50
2022/08/01 04:41:47;;;;;;;10.40;4.18;;;17.40;99.90;;;;;;4824005;29;20031;-52
2022/08/01 04:44:13;;;;;;;6.50;3.90;;;17.40;99.90;;;;;;4823982;29;20120;-50
2022/08/01 04:46:40;;;;;;;5.10;4.10;;;17.40;99.90;;;;;;4824694;29;20042;-54
2022/08/01 04:49:08;;;;;;;5.28;4.72;;;17.40;99.90;;;;;;4824489;29;20166;-50
2022/08/01 04:51:34;;;;;;;8.10;4.50;;;17.40;99.90;;;;;;4823523;29;20039;-52
2022/08/01 04:54:00;;;;;;;6.63;4.20;;;17.40;99.90;;;;;;4824494;29;20105;-50
2022/08/01 04:56:27;;;;;;;7.72;4.22;;;17.50;99.90;;;;;;4824375;29;20379;-51
2022/08/01 05:01:37;;;;;;;9.10;3.83;;;17.80;99.90;;;;;;4823167;29;20037;-52
2022/08/01 05:04:03;;;;;;;6.05;3.47;;;18.00;99.90;;;;;;4823111;29;20487;-50
2022/08/01 05:06:28;;;;;;;6.68;3.22;;;18.10;99.90;;;;;;4823462;29;20049;-51
2022/08/01 05:08:54;;;;;;;3.83;3.47;;;18.30;99.90;;;;;;4822766;29;20030;-52
2022/08/01 05:11:21;;;;;;;6.13;3.70;;;18.50;99.90;;;;;;4822989;29;20061;-51
2022/08/01 05:13:47;;;;;;;7.78;3.80;;;18.80;99.90;;;;;;4822815;29;20026;-49
2022/08/01 05:16:13;;;;;;;11.85;3.38;;;19.00;99.90;;;;;;4822950;29;20082;-49
2022/08/01 05:18:39;;;;;;;6.75;3.75;;;19.20;99.90;;;;;;4822690;29;20034;-51
2022/08/01 05:21:04;;;;;;;8.65;2.90;;;19.50;99.90;;;;;;4822892;29;20031;-52
2022/08/01 05:23:30;;;;;;;4.20;3.03;;;19.60;99.90;;;;;;4823050;29;20033;-50
2022/08/01 05:25:56;;;;;;;10.40;3.33;;;19.80;99.90;;;;;;4822630;29;20406;-50
2022/08/01 05:28:21;;;;;;;3.58;3.28;;;19.90;99.90;;;;;;4822599;29;20121;-50
2022/08/01 05:30:47;;;;;;;4.22;3.00;;;20.00;99.90;;;;;;4823070;29;20027;-52
2022/08/01 05:33:13;;;;;;;5.43;3.13;;;20.00;99.90;;;;;;4822736;29;20041;-50
2022/08/01 05:35:38;;;;;;;3.53;2.80;;;20.10;99.90;;;;;;4822554;29;20068;-49
2022/08/01 05:38:04;;;;;;;4.60;2.63;;;20.20;99.90;;;;;;4822513;29;20030;-50
2022/08/01 05:40:29;;;;;;;3.50;2.67;;;20.40;99.90;;;;;;4822816;29;20435;-52
2022/08/01 05:42:55;;;;;;;3.03;2.72;;;20.50;99.90;;;;;;4822558;29;20475;-51
2022/08/01 05:45:21;;;;;;;3.17;2.45;;;20.60;99.90;;;;;;4822689;29;20038;-49
2022/08/01 05:47:46;;;;;;;2.95;2.65;;;20.70;99.90;;;;;;4822534;29;20050;-50
2022/08/01 05:50:12;;;;;;;4.30;3.00;;;20.70;99.90;;;;;;4822637;29;20034;-49
2022/08/01 05:52:38;;;;;;;7.93;2.25;;;20.80;99.90;;;;;;4822712;29;20050;-49
2022/08/01 05:55:04;;;;;;;3.03;2.55;;;20.80;99.90;;;;;;4821308;29;20041;-51
2022/08/01 05:57:30;;;;;;;4.32;2.60;;;20.90;99.90;;;;;;4822238;29;20031;-49
2022/08/01 05:59:55;;;;;;;4.07;2.20;;;20.90;99.90;;;;;;4822357;29;20045;-51
2022/08/01 06:02:21;;;;;;;3.25;2.60;;;20.90;99.90;;;;;;4822219;29;20023;-51
2022/08/01 06:04:47;;;;;;;4.00;2.47;;;21.00;99.90;;;;;;4821560;29;20385;-51
2022/08/01 06:07:13;;;;;;;5.15;2.85;;;21.10;99.90;;;;;;4820388;29;20030;-50
2022/08/01 06:09:38;;;;;;;3.78;2.20;;;21.20;99.90;;;;;;4822176;29;20117;-51
2022/08/01 06:12:04;;;;;;;6.57;2.53;;;21.40;99.90;;;;;;4822057;29;20038;-50
2022/08/01 06:14:30;;;;;;;3.72;2.47;;;21.50;99.90;;;;;;4822078;29;20030;-49
2022/08/01 06:16:56;;;;;;;4.88;2.33;;;21.60;99.90;;;;;;4821851;29;20038;-50
2022/08/01 06:19:22;;;;;;;5.07;2.40;;;21.60;99.90;;;;;;4817625;29;20027;-51
2022/08/01 06:21:47;;;;;;;6.18;2.50;;;21.40;99.90;;;;;;4805778;29;20117;-50
2022/08/01 06:24:13;;;;;;;7.00;2.83;;;21.50;99.90;;;;;;4807783;29;20027;-49
2022/08/01 06:26:39;;;;;;;6.90;2.70;;;21.50;99.90;;;;;;4822460;29;20441;-49
2022/08/01 06:29:11;;;;;;;3.08;2.60;;;21.60;99.90;;;;;;4821407;29;20033;-48
2022/08/01 06:31:36;;;;;;;5.55;2.65;;;21.70;99.90;;;;;;4804087;29;20031;-50
2022/08/01 06:34:02;;;;;;;4.28;2.45;;;21.80;99.90;;;;;;4803649;29;20038;-51
2022/08/01 06:36:27;;;;;;;5.97;2.97;;;21.90;99.90;;;;;;4806393;29;20053;-50
2022/08/01 06:38:53;;;;;;;4.43;2.70;;;22.00;99.30;;;;;;4821970;29;20547;-51
2022/08/01 06:41:19;;;;;;;7.50;3.55;;;21.90;99.30;;;;;;4820637;29;20023;-50
2022/08/01 06:43:44;;;;;;;3.60;2.28;;;22.00;99.90;;;;;;4822007;29;20087;-54
2022/08/01 06:46:10;;;;;;;8.57;2.30;;;22.10;99.90;;;;;;4821925;29;20022;-54
2022/08/01 06:48:39;;;;;;;9.82;2.58;;;22.00;99.90;;;;;;4821837;29;20440;-52
2022/08/01 06:51:07;;;;;;;7.28;2.72;;;21.90;99.10;;;;;;4821796;29;20049;-50
2022/08/01 06:53:34;;;;;;;5.72;2.50;;;21.90;99.90;;;;;;4820707;29;20026;-50
2022/08/01 06:56:00;;;;;;;3.90;2.50;;;21.90;99.50;;;;;;4821636;29;20030;-50
2022/08/01 06:58:26;;;;;;;5.30;3.20;;;22.10;99.90;;;;;;4821752;29;20022;-51
2022/08/01 07:00:52;;;;;;;4.97;2.67;;;22.20;99.20;;;;;;4821715;29;20414;-49
2022/08/01 07:03:17;;;;;;;4.15;2.58;;;22.40;98.70;;;;;;4821654;29;20509;-49
2022/08/01 07:05:43;;;;;;;4.43;3.00;;;22.50;98.60;;;;;;4821835;29;20551;-50
2022/08/01 07:08:08;;;;;;;9.85;2.58;;;22.70;98.10;;;;;;4821778;29;20037;-52
2022/08/01 07:10:34;;;;;;;3.17;2.08;;;22.90;99.60;;;;;;4821582;29;20069;-51
2022/08/01 07:13:00;;;;;;;3.35;3.03;;;23.00;98.70;;;;;;4821321;29;20042;-51
2022/08/01 07:15:26;;;;;;;6.10;2.88;;;23.20;98.70;;;;;;4821594;29;20114;-50
2022/08/01 07:17:52;;;;;;;3.15;2.60;;;23.30;97.30;;;;;;4821437;29;20039;-52
2022/08/01 07:20:18;;;;;;;5.30;2.78;;;23.50;97.50;;;;;;4821624;29;20479;-50
2022/08/01 07:22:43;;;;;;;5.55;2.65;;;23.60;97.20;;;;;;4821509;29;20368;-51
2022/08/01 07:25:09;;;;;;;11.45;3.25;;;23.70;97.10;;;;;;4821105;29;20092;-50
2022/08/01 07:27:36;;;;;;;4.10;2.22;;;23.60;96.60;;;;;;4803384;29;20497;-53
2022/08/01 07:30:03;;;;;;;8.35;2.88;;;23.90;97.30;;;;;;4803074;29;20031;-54
2022/08/01 07:32:29;;;;;;;5.05;2.58;;;23.90;96.10;;;;;;4803128;29;20039;-49
2022/08/01 07:34:56;;;;;;;3.13;2.25;;;23.90;97.30;;;;;;4816230;29;20041;-54
2022/08/01 07:37:22;;;;;;;5.57;3.28;;;23.80;97.30;;;;;;4819781;29;20034;-53
2022/08/01 07:39:47;;;;;;;5.60;2.97;;;23.70;96.60;;;;;;4835175;29;20210;-51
2022/08/01 07:42:13;;;;;;;4.00;2.92;;;23.80;97.50;;;;;;4816096;29;20038;-49
2022/08/01 07:44:39;;;;;;;9.38;2.63;;;23.60;97.30;;;;;;4836729;29;20026;-54
2022/08/01 07:47:05;;;;;;;5.65;2.92;;;23.70;96.10;;;;;;4807905;29;21270;-52
2022/08/01 07:49:30;;;;;;;6.47;2.67;;;23.80;97.00;;;;;;4808027;29;20023;-50
2022/08/01 07:51:56;;;;;;;4.50;2.70;;;24.00;96.60;;;;;;4806500;29;20023;-53
2022/08/01 07:54:23;;;;;;;3.20;2.67;;;24.00;96.70;;;;;;4806648;29;20065;-51
2022/08/01 07:56:50;;;;;;;6.10;2.80;;;23.80;96.70;;;;;;4806485;29;20395;-50
2022/08/01 07:59:15;;;;;;;10.40;2.47;;;24.10;96.30;;;;;;4810819;29;20387;-50
2022/08/01 08:01:41;;;;;;;4.28;2.70;;;24.10;97.00;;;;;;4809625;29;20027;-52
2022/08/01 08:04:07;;;;;;;3.60;2.67;;;24.10;97.10;;;;;;4805163;29;20061;-50
2022/08/01 08:06:33;;;;;;;4.88;3.38;;;23.90;96.90;;;;;;4806522;29;20023;-54
2022/08/01 08:08:58;;;;;;;4.28;2.47;;;23.70;96.20;;;;;;4806204;29;20388;-51
2022/08/01 08:11:24;;;;;;;6.45;2.67;;;23.70;97.20;;;;;;4806332;29;20030;-49
2022/08/01 08:13:50;;;;;;;2.92;2.63;;;23.70;97.30;;;;;;4806722;29;20035;-51
2022/08/01 08:16:15;;;;;;;4.43;3.03;;;23.70;97.30;;;;;;4806402;29;20031;-49
2022/08/01 08:18:41;;;;;;;4.07;2.60;;;23.70;97.40;;;;;;4804970;29;20060;-52
2022/08/01 08:21:07;;;;;;;6.43;3.20;;;23.50;98.90;;;;;;4806094;29;20526;-51
2022/08/01 08:26:17;;;;;;;3.60;2.97;;;23.60;98.00;;;;;;4806176;29;20395;-52
2022/08/01 08:28:43;;;;;;;3.50;2.97;;;23.80;96.90;;;;;;4806164;29;20027;-49
2022/08/01 08:31:09;;;;;;;6.95;3.00;;;24.00;97.90;;;;;;4806131;29;20035;-51
2022/08/01 08:33:34;;;;;;;3.13;2.83;;;24.30;97.70;;;;;;4806500;29;20055;-51
2022/08/01 08:36:01;;;;;;;13.50;3.60;;;24.40;97.70;;;;;;4810365;29;20026;-52
2022/08/01 08:38:27;;;;;;;3.03;2.63;;;24.20;96.50;;;;;;4805983;29;20387;-51
2022/08/01 08:41:02;;;;;;;3.50;2.72;;;24.50;96.60;;;;;;4805868;29;20033;-50
2022/08/01 08:43:27;;;;;;;10.15;3.10;;;24.70;96.20;;;;;;4819754;29;20435;-49
2022/08/01 08:45:54;;;;;;;4.57;3.13;;;24.80;94.80;;;;;;4822591;29;20059;-50
2022/08/01 08:48:21;;;;;;;5.00;3.65;;;24.80;95.20;;;;;;4822513;29;20026;-53
2022/08/01 08:50:48;;;;;;;5.72;2.78;;;24.90;93.90;;;;;;4822685;29;20045;-50
2022/08/01 08:53:16;;;;;;;7.80;2.97;;;25.20;96.70;;;;;;4822560;29;20070;-53
2022/08/01 08:55:42;;;;;;;4.88;2.78;;;25.30;95.20;;;;;;4822730;29;20035;-50
2022/08/01 08:58:13;;;;;;;4.13;2.88;;;25.80;93.70;;;;;;4822060;29;20030;-51
2022/08/01 09:00:42;;;;;;;3.58;2.53;;;25.70;92.70;;;;;;4822246;29;20443;-50
2022/08/01 09:03:08;;;;;;;3.80;2.75;;;26.00;93.30;;;;;;4822915;29;20030;-51
2022/08/01 09:05:34;;;;;;;8.82;3.38;;;26.10;94.70;;;;;;4823504;29;20039;-50
2022/08/01 09:07:59;;;;;;;7.65;3.45;;;25.90;92.90;;;;;;4823237;29;20121;-50
2022/08/01 09:10:25;;;;;;;3.83;2.92;;;25.70;92.90;;;;;;4823369;29;20113;-51
2022/08/01 09:13:10;;;;;;;5.00;2.85;;;25.70;93.30;;;;;;4822974;29;20546;-49
2022/08/01 09:15:42;;;;;;;8.20;3.17;;;25.70;93.00;;;;;;4823210;29;20041;-50
2022/08/01 09:18:08;;;;;;;3.22;2.90;;;26.20;93.20;;;;;;4822914;29;20451;-50
2022/08/01 09:20:35;;;;;;;4.40;2.97;;;26.20;92.00;;;;;;4823133;29;20027;-51
2022/08/01 09:23:01;;;;;;;3.97;3.17;;;26.10;92.90;;;;;;4821339;29;20087;-51
2022/08/01 09:25:32;;;;;;;5.75;2.83;;;26.20;91.50;;;;;;4823191;29;20023;-50
2022/08/01 09:28:06;;;;;;;5.05;3.05;;;26.10;92.10;;;;;;4822975;29;20035;-51
2022/08/01 09:30:39;;;;;;;6.78;2.65;;;25.70;92.00;;;;;;4823164;29;20376;-52
2022/08/01 09:33:05;;;;;;;8.45;2.70;;;25.40;91.30;;;;;;4822981;29;20031;-50
2022/08/01 09:35:36;;;;;;;6.00;3.22;;;25.50;92.90;;;;;;4823025;29;20037;-50
2022/08/01 09:38:13;;;;;;;4.90;2.50;;;25.80;92.40;;;;;;4822867;29;20069;-51
2022/08/01 09:40:50;;;;;;;5.70;2.58;;;26.20;92.30;;;;;;4822750;29;20022;-50
2022/08/01 09:43:16;;;;;;;3.10;2.53;;;26.60;93.00;;;;;;4823096;29;20027;-50
2022/08/01 09:45:42;;;;;;;12.13;3.30;;;26.50;90.60;;;;;;4822298;29;20023;-51
2022/08/01 09:48:09;;;;;;;10.13;3.13;;;26.10;90.70;;;;;;4815999;29;20027;-50
2022/08/01 09:50:46;;;;;;;4.30;2.53;;;26.00;91.30;;;;;;4805125;29;20039;-50
2022/08/01 09:53:13;;;;;;;5.57;3.10;;;26.30;91.70;;;;;;4804679;29;20503;-50
2022/08/01 09:55:39;;;;;;;3.92;2.67;;;26.50;92.00;;;;;;4808789;29;20030;-50
2022/08/01 09:58:06;;;;;;;3.33;3.00;;;26.40;90.70;;;;;;4822228;29;20065;-51
2022/08/01 10:00:33;;;;;;;4.65;2.83;;;26.10;90.80;;;;;;4822197;29;20018;-51
2022/08/01 10:02:59;;;;;;;6.03;2.92;;;25.90;90.10;;;;;;4822673;29;20428;-50
2022/08/01 10:05:33;;;;;;;9.93;2.90;;;26.30;91.10;;;;;;4822550;29;20030;-52
2022/08/01 10:08:01;;;;;;;3.78;2.33;;;27.20;92.60;;;;;;4822258;29;20513;-51
2022/08/01 10:10:27;;;;;;;4.35;2.53;;;27.50;91.90;;;;;;4820737;29;20037;-51
2022/08/01 10:12:55;;;;;;;4.82;2.63;;;27.20;89.00;;;;;;4821956;29;20050;-53
2022/08/01 10:15:21;;;;;;;6.25;2.30;;;27.20;88.70;;;;;;4822489;29;20435;-53
2022/08/01 10:17:54;;;;;;;6.13;2.55;;;26.90;90.60;;;;;;4821942;29;20042;-51
2022/08/01 10:20:25;;;;;;;10.23;2.60;;;27.60;90.80;;;;;;4822399;29;20030;-50
2022/08/01 10:22:54;;;;;;;3.03;2.72;;;27.50;90.10;;;;;;4822241;29;20487;-51
2022/08/01 10:25:21;;;;;;;5.25;2.22;;;27.00;89.20;;;;;;4820859;29;20049;-50
2022/08/01 10:27:49;;;;;;;5.25;2.70;;;26.60;91.40;;;;;;4821693;29;20038;-52
2022/08/01 10:30:15;;;;;;;8.95;2.85;;;26.70;92.40;;;;;;4821507;29;20045;-50
2022/08/01 10:32:42;;;;;;;2.90;2.45;;;27.00;91.80;;;;;;4821327;29;20478;-50
2022/08/01 10:35:09;;;;;;;8.27;2.60;;;27.20;91.40;;;;;;4821232;29;20058;-50
2022/08/01 10:37:35;;;;;;;4.18;2.63;;;26.70;90.80;;;;;;4821348;29;20030;-51
2022/08/01 10:40:02;;;;;;;4.43;2.28;;;26.60;91.00;;;;;;4820943;29;20037;-51
2022/08/01 10:42:28;;;;;;;4.80;2.58;;;26.60;91.00;;;;;;4821096;29;20034;-50
2022/08/01 10:44:55;;;;;;;2.53;2.25;;;27.10;91.80;;;;;;4821817;29;20167;-50
2022/08/01 10:47:35;;;;;;;5.25;2.80;;;27.50;90.30;;;;;;4821956;29;20391;-51
2022/08/01 10:50:23;;;;;;;4.40;2.75;;;27.70;90.70;;;;;;4821782;29;20505;-50
2022/08/01 10:53:11;;;;;;;3.08;2.47;;;28.00;89.60;;;;;;4821118;29;20617;-49
2022/08/01 10:55:52;;;;;;;7.55;2.13;;;27.60;89.80;;;;;;4820947;29;20054;-54
2022/08/01 10:58:40;;;;;;;4.47;2.80;;;27.20;89.90;;;;;;4821647;29;20038;-52
2022/08/01 11:01:54;;;;;;;3.03;1.95;;;26.80;89.20;;;;;;4821638;29;20038;-53
2022/08/01 11:04:21;;;;;;;2.85;1.90;;;26.70;90.50;;;;;;4821605;29;20031;-52
2022/08/01 11:07:21;;;;;;;6.65;2.63;;;27.40;91.30;;;;;;4820809;29;20046;-50
2022/08/01 11:09:48;;;;;;;3.00;2.10;;;27.30;88.80;;;;;;4820008;29;20043;-51
2022/08/01 11:12:16;;;;;;;2.50;2.30;;;26.90;89.00;;;;;;4807014;29;20063;-51
2022/08/01 11:15:00;;;;;;;4.82;1.88;;;26.80;88.30;;;;;;4793453;29;20041;-51
2022/08/01 11:17:35;;;;;;;4.80;2.40;;;26.90;88.70;;;;;;4791820;29;20054;-51
2022/08/01 11:20:25;;;;;;;4.07;2.00;;;26.70;87.20;;;;;;4792596;29;20368;-51
2022/08/01 11:23:05;;;;;;;4.55;3.00;;;27.40;90.10;;;;;;4790151;29;20547;-50
2022/08/01 11:25:36;;;;;;;5.38;2.10;;;27.70;87.90;;;;;;4792875;29;20034;-52
2022/08/01 11:28:17;;;;;;;2.22;2.03;;;28.20;90.60;;;;;;4790434;29;20027;-51
2022/08/01 11:31:08;;;;;;;4.05;2.08;;;28.70;89.30;;;;;;4786875;29;20031;-52
2022/08/01 11:38:45;;;;;;;5.15;2.33;;;27.70;86.50;;;;;;4791951;29;20441;-52
2022/08/01 11:41:16;;;;;;;2.58;2.10;;;27.20;86.20;;;;;;4792824;29;20035;-50
2022/08/01 11:44:19;;;;;;;6.05;1.90;;;27.40;87.90;;;;;;4791888;29;20039;-51
2022/08/01 11:46:56;;;;;;;2.92;2.15;;;27.50;86.50;;;;;;4789162;29;20582;-53
2022/08/01 11:49:38;;;;;;;10.95;5.38;;;27.90;85.20;;;;;;4793617;29;20047;-51
2022/08/01 11:52:32;;;;;;;7.53;3.60;;;28.70;86.10;;;;;;4799508;29;20474;-52
2022/08/01 11:54:57;;;;;;;5.07;1.92;;;29.00;82.40;;;;;;4812475;29;20051;-53
2022/08/01 11:57:26;;;;;;;5.18;1.55;;;29.70;82.90;;;;;;4803617;29;20031;-54
2022/08/01 11:59:56;;;;;;;6.47;2.00;;;29.40;81.30;;;;;;4804003;29;20080;-53
2022/08/01 12:02:23;;;;;;;6.82;2.38;;;29.70;77.30;;;;;;4803405;29;20071;-50
2022/08/01 12:04:52;;;;;;;1.95;1.55;;;29.80;78.90;;;;;;4803909;29;20079;-54
2022/08/01 12:07:18;;;;;;;2.95;1.70;;;30.00;78.70;;;;;;4804080;29;20038;-52
2022/08/01 12:09:44;;;;;;;3.08;1.60;;;30.90;83.80;;;;;;4808479;29;20034;-52
2022/08/01 12:12:11;;;;;;;4.60;1.67;;;30.30;80.60;;;;;;4822006;29;20450;-53
2022/08/01 12:14:38;;;;;;;3.22;1.60;;;30.30;77.10;;;;;;4821990;29;20046;-54
2022/08/01 12:17:04;;;;;;;5.57;1.55;;;30.70;74.00;;;;;;4822093;29;20042;-53
2022/08/01 12:19:29;;;;;;;6.50;2.47;;;30.60;76.50;;;;;;4822188;29;20376;-53
2022/08/01 12:22:13;;;;;;;3.45;1.55;;;31.20;76.80;;;;;;4822008;29;20078;-52
2022/08/01 12:24:42;;;;;;;2.95;1.85;;;31.20;72.70;;;;;;4822184;29;20121;-56
2022/08/01 12:27:10;;;;;;;1.67;1.25;;;30.80;77.10;;;;;;4821825;29;20133;-53
2022/08/01 12:29:38;;;;;;;8.80;1.58;;;31.60;72.80;;;;;;4822223;29;20030;-54
2022/08/01 12:32:04;;;;;;;1.70;1.30;;;32.20;69.20;;;;;;4821883;29;20041;-55
2022/08/01 12:34:33;;;;;;;3.30;1.70;;;31.20;67.20;;;;;;4818571;29;20031;-56
2022/08/01 12:37:02;;;;;;;2.20;1.33;;;30.60;72.30;;;;;;4813742;29;20042;-54
2022/08/01 12:39:32;;;;;;;4.82;1.80;;;29.80;73.40;;;;;;4819910;29;20073;-52
2022/08/01 12:41:58;;;;;;;6.25;2.13;;;29.20;72.60;;;;;;4824310;29;20022;-53
2022/08/01 12:44:26;;;;;;;2.47;1.73;;;28.60;77.00;;;;;;4815050;29;20031;-53
2022/08/01 12:46:52;;;;;;;1.92;1.23;;;28.50;79.50;;;;;;4806890;29;20107;-53
2022/08/01 12:49:18;;;;;;;1.70;1.40;;;29.80;74.80;;;;;;4806740;29;20076;-55
2022/08/01 12:51:44;;;;;;;4.20;1.55;;;31.20;69.50;;;;;;4806853;29;20062;-55
2022/08/01 12:54:10;;;;;;;5.90;1.23;;;33.10;68.70;;;;;;4805471;29;20197;-53
2022/08/01 12:56:36;;;;;;;5.35;1.63;;;33.80;66.90;;;;;;4815631;29;20045;-52
2022/08/01 12:59:19;;;;;;;7.13;1.52;;;34.60;64.50;;;;;;4824181;29;20034;-55
2022/08/01 13:01:45;;;;;;;4.35;1.13;;;35.00;61.60;;;;;;4823119;29;20058;-56
2022/08/01 13:04:10;;;;;;;3.30;1.25;;;33.70;60.80;;;;;;4811027;29;20057;-50
2022/08/01 13:06:36;;;;;;;9.70;1.90;;;33.00;60.90;;;;;;4806638;29;20046;-54